Terminal Aerodrome Forecast
Issued by NWS Raleigh/Durham, NC

Home | Current Version | Previous Version | Text Only | Print | Product List | Glossary On
Versions: 1 2 3 4 5 6 7 8 9 10 11 12 13 14 15 16
000
FTUS42 KRAH 281722
TAFRDU
TAF
KRDU 281722Z 2818/2918 22008KT P6SM SCT035 SCT100
     FM282100 24008KT P6SM VCTS BKN050CB
      TEMPO 2822/2902 4SM TSRA BKN030CB
     FM290600 04003KT P6SM BKN250
      TEMPO 2910/2913 3SM BR BKN015
     FM291500 01004KT P6SM BKN040=

USA.gov is the U.S. government's official web portal to all federal, state and local government web resources and services.